Time;durP1;ratioP1;P1;durP2;ratioP2;P2;SDS_P1;SDS_P2;PMS_P1;PMS_P2;Temp;Humidity;BMP_temperature;BMP_pressure;BME280_temperature;BME280_humidity;BME280_pressure;Samples;Min_cycle;Max_cycle;Signal;HPM_P1;HPM_P2
2021/12/22 00:01:35;;;;;;;;;47.00;33.75;;;;;3.74;62.53;102104.84;5033316;28;45394;-73
2021/12/22 00:04:00;;;;;;;;;46.00;38.25;;;;;3.75;62.59;102109.25;5039349;28;45566;-73
2021/12/22 00:06:27;;;;;;;;;52.00;37.00;;;;;3.62;63.26;102087.66;5021510;28;45551;-75
2021/12/22 00:08:52;;;;;;;;;65.00;42.50;;;;;3.75;63.26;102114.47;5039265;28;46451;-73
2021/12/22 00:11:18;;;;;;;;;62.75;43.25;;;;;3.74;63.20;102120.53;5038974;28;45350;-73
2021/12/22 00:13:43;;;;;;;;;43.00;33.75;;;;;3.66;63.00;102102.66;5021616;28;45441;-73
2021/12/22 00:16:09;;;;;;;;;48.00;36.75;;;;;3.69;63.07;102117.63;5038013;28;45347;-72
2021/12/22 00:18:34;;;;;;;;;53.50;35.50;;;;;3.60;63.45;102083.13;5004618;28;45868;-72
2021/12/22 00:21:00;;;;;;;;;38.50;31.25;;;;;3.64;63.29;102079.91;5020644;28;58708;-72
2021/12/22 00:23:25;;;;;;;;;35.75;31.25;;;;;3.66;63.42;102081.78;5039056;28;45387;-73
2021/12/22 00:25:51;;;;;;;;;48.25;39.25;;;;;3.62;63.15;102077.19;5004693;28;45556;-73
2021/12/22 00:28:16;;;;;;;;;51.75;34.25;;;;;3.72;63.58;102083.84;5004524;28;46515;-73
2021/12/22 00:30:42;;;;;;;;;42.00;35.25;;;;;3.85;63.25;102106.38;5038040;28;61442;-73
2021/12/22 00:33:10;;;;;;;;;36.50;28.75;;;;;3.86;63.48;102098.63;5038880;28;45253;-73
2021/12/22 00:35:43;;;;;;;;;40.75;39.25;;;;;3.77;63.47;102071.94;5021740;28;45566;-73
2021/12/22 00:38:09;;;;;;;;;46.50;40.25;;;;;3.80;63.39;102072.16;5022202;28;48717;-73
2021/12/22 00:40:35;;;;;;;;;47.50;39.25;;;;;3.90;63.40;102097.09;5021174;28;45451;-73
2021/12/22 00:43:00;;;;;;;;;42.25;32.75;;;;;3.90;62.97;102090.16;5004747;28;45393;-73
2021/12/22 00:45:28;;;;;;;;;46.50;34.25;;;;;3.92;63.30;102104.19;5038560;28;45486;-73
2021/12/22 00:47:54;;;;;;;;;47.00;34.00;;;;;3.90;63.28;102102.31;5038652;28;46617;-73
2021/12/22 00:50:20;;;;;;;;;38.75;33.50;;;;;3.93;62.79;102102.47;5023131;28;45557;-72
2021/12/22 00:52:45;;;;;;;;;46.00;35.50;;;;;3.88;62.68;102091.75;5025225;28;45357;-73
2021/12/22 00:55:13;;;;;;;;;42.50;36.25;;;;;3.90;63.30;102089.25;5033914;28;45533;-72
2021/12/22 00:57:39;;;;;;;;;42.00;34.00;;;;;3.93;63.23;102092.03;5021103;28;45818;-74
2021/12/22 01:00:06;;;;;;;;;55.25;36.75;;;;;3.81;63.22;102076.56;5038430;28;45356;-73
2021/12/22 01:02:32;;;;;;;;;49.75;37.50;;;;;3.89;63.31;102101.44;5020598;28;45333;-73
2021/12/22 01:04:57;;;;;;;;;39.50;31.00;;;;;3.80;63.10;102081.69;5004119;28;45467;-72
2021/12/22 01:07:23;;;;;;;;;60.75;42.50;;;;;3.89;62.80;102101.44;5037455;28;61593;-72
2021/12/22 01:09:48;;;;;;;;;43.50;32.75;;;;;3.88;63.48;102094.38;5003503;28;57027;-72
2021/12/22 01:12:14;;;;;;;;;37.50;30.00;;;;;3.88;63.11;102093.47;5020391;28;55656;-73
2021/12/22 01:14:40;;;;;;;;;41.75;34.75;;;;;3.83;63.12;102100.16;5038212;28;45443;-73
2021/12/22 01:17:06;;;;;;;;;50.25;34.75;;;;;3.83;63.10;102107.97;5038219;28;46276;-73
2021/12/22 01:19:53;;;;;;;;;49.50;41.00;;;;;3.79;63.13;102111.25;5020458;28;45340;-72
2021/12/22 01:22:35;;;;;;;;;35.25;28.25;;;;;3.76;63.69;102106.72;5023431;28;45474;-73
2021/12/22 01:25:06;;;;;;;;;41.50;36.25;;;;;3.77;63.33;102091.94;5008726;28;45434;-73
2021/12/22 01:27:35;;;;;;;;;54.50;32.00;;;;;3.84;62.98;102091.53;5020782;28;46141;-73
2021/12/22 01:30:05;;;;;;;;;48.50;33.25;;;;;3.84;62.91;102089.81;5038049;28;45334;-72
2021/12/22 01:32:31;;;;;;;;;45.75;36.25;;;;;3.89;63.50;102092.69;5038106;28;45340;-73
2021/12/22 01:34:56;;;;;;;;;35.50;33.00;;;;;3.89;63.23;102093.59;5037355;28;55422;-74
2021/12/22 01:37:22;;;;;;;;;52.00;34.75;;;;;3.86;63.11;102080.34;5037514;28;46285;-72
2021/12/22 01:39:47;;;;;;;;;47.50;35.25;;;;;3.85;62.86;102077.63;5038047;28;45325;-73
2021/12/22 01:42:13;;;;;;;;;41.25;31.25;;;;;3.76;63.02;102066.66;5019792;28;45903;-73
2021/12/22 01:45:00;;;;;;;;;42.50;38.50;;;;;3.84;63.28;102075.84;5025048;28;48249;-73
2021/12/22 01:50:11;;;;;;;;;46.75;38.00;;;;;3.81;62.96;102078.25;5009559;28;45421;-72
2021/12/22 01:52:37;;;;;;;;;44.00;32.00;;;;;3.81;63.49;102080.88;5011623;28;45357;-73
2021/12/22 01:55:13;;;;;;;;;51.00;34.75;;;;;3.75;63.48;102073.59;5019671;28;45293;-74
2021/12/22 01:57:47;;;;;;;;;26.25;24.25;;;;;3.68;63.47;102068.81;5037340;28;46588;-72
2021/12/22 02:00:13;;;;;;;;;49.50;36.25;;;;;3.66;63.21;102067.81;5002954;28;46088;-73
2021/12/22 02:02:38;;;;;;;;;49.25;34.50;;;;;3.66;63.57;102068.72;5003018;28;45280;-72
2021/12/22 02:05:04;;;;;;;;;35.00;24.00;;;;;3.66;63.22;102062.59;5019662;28;45508;-72
2021/12/22 02:07:29;;;;;;;;;45.75;29.00;;;;;3.76;63.44;102064.94;5019841;28;45506;-73
2021/12/22 02:12:30;;;;;;;;;37.00;30.00;;;;;3.76;63.19;102066.66;5037724;28;45221;-74
2021/12/22 02:14:56;;;;;;;;;47.50;32.25;;;;;3.77;63.54;102071.06;5037304;28;45431;-72
2021/12/22 02:17:21;;;;;;;;;47.75;34.50;;;;;3.78;63.43;102068.56;5002969;28;45982;-73
2021/12/22 02:19:47;;;;;;;;;43.75;35.75;;;;;3.83;63.47;102063.56;5037047;28;45438;-73
2021/12/22 02:22:15;;;;;;;;;50.50;35.00;;;;;3.89;63.38;102069.19;5002453;28;45565;-73
2021/12/22 02:24:53;;;;;;;;;40.00;32.25;;;;;3.98;63.37;102060.94;5003828;28;45473;-73
2021/12/22 02:27:32;;;;;;;;;43.50;37.00;;;;;4.01;63.44;102067.25;5019797;28;45911;-72
2021/12/22 02:30:01;;;;;;;;;42.00;35.50;;;;;4.05;63.20;102074.47;5021352;28;45446;-72
2021/12/22 02:35:07;;;;;;;;;57.00;40.75;;;;;4.07;63.03;102054.53;5021833;28;45336;-73
2021/12/22 02:37:42;;;;;;;;;46.75;31.75;;;;;4.04;63.05;102036.06;5018836;28;45304;-73
2021/12/22 02:40:12;;;;;;;;;47.00;38.75;;;;;4.26;62.82;102076.47;5019786;28;45376;-72
2021/12/22 02:42:38;;;;;;;;;51.00;37.25;;;;;4.27;62.97;102070.47;5019526;28;45216;-73
2021/12/22 02:45:11;;;;;;;;;46.50;33.25;;;;;4.31;62.63;102072.41;5019447;28;45493;-72
2021/12/22 02:47:36;;;;;;;;;45.50;32.50;;;;;4.30;63.09;102068.00;5019234;28;46741;-73
2021/12/22 02:50:03;;;;;;;;;48.25;32.25;;;;;4.34;63.20;102075.19;5036217;28;57917;-73
2021/12/22 02:52:36;;;;;;;;;40.00;26.00;;;;;4.30;62.86;102063.66;5041439;28;45296;-74
2021/12/22 02:55:02;;;;;;;;;40.50;33.75;;;;;4.30;63.26;102066.28;5035238;28;45473;-73
2021/12/22 02:57:33;;;;;;;;;36.00;28.25;;;;;4.33;62.79;102063.84;5002060;28;45802;-73
2021/12/22 03:02:57;;;;;;;;;51.25;35.50;;;;;4.31;62.75;102061.94;5036715;28;45271;-73
2021/12/22 03:05:24;;;;;;;;;41.25;35.50;;;;;4.33;62.99;102073.41;5036862;28;45438;-73
2021/12/22 03:07:49;;;;;;;;;38.00;32.00;;;;;4.34;62.67;102062.13;5018836;28;46670;-73
2021/12/22 03:10:17;;;;;;;;;42.50;36.25;;;;;4.22;63.01;102038.81;5019187;28;45363;-73
2021/12/22 03:12:50;;;;;;;;;44.00;31.75;;;;;4.38;62.65;102056.25;5018579;28;45310;-74
2021/12/22 03:15:15;;;;;;;;;39.00;29.00;;;;;4.41;62.88;102053.81;5003138;28;45369;-73
2021/12/22 03:17:41;;;;;;;;;36.50;31.50;;;;;4.38;62.70;102046.69;5035555;28;60438;-73
2021/12/22 03:20:08;;;;;;;;;40.75;29.25;;;;;4.41;62.42;102053.81;5001661;28;55102;-74
2021/12/22 03:22:33;;;;;;;;;35.75;30.25;;;;;4.44;62.24;102046.13;5018428;28;45357;-72
2021/12/22 03:24:59;;;;;;;;;36.50;30.00;;;;;4.47;62.76;102062.91;5002335;28;45345;-74
2021/12/22 03:27:24;;;;;;;;;42.25;25.75;;;;;4.37;62.29;102051.84;5036294;28;46641;-72
2021/12/22 03:29:50;;;;;;;;;38.25;30.00;;;;;4.47;62.23;102064.59;5018599;28;45390;-73
2021/12/22 03:32:15;;;;;;;;;45.75;32.75;;;;;4.47;62.76;102068.13;5001797;28;45252;-72
2021/12/22 03:34:41;;;;;;;;;42.75;33.00;;;;;4.37;62.18;102044.00;5036232;28;51126;-73
2021/12/22 03:37:07;;;;;;;;;34.25;29.75;;;;;4.51;61.96;102056.09;4998763;28;46414;-73
2021/12/22 03:39:32;;;;;;;;;53.50;33.75;;;;;4.52;62.29;102060.53;5001533;28;45474;-73
2021/12/22 03:41:58;;;;;;;;;49.00;32.25;;;;;4.52;62.52;102057.91;5036314;28;45253;-73
2021/12/22 03:44:23;;;;;;;;;40.75;29.25;;;;;4.54;62.28;102063.25;5007132;28;45313;-73
2021/12/22 03:46:50;;;;;;;;;42.00;32.25;;;;;4.56;62.36;102064.22;5035599;28;55536;-72
2021/12/22 03:49:16;;;;;;;;;38.25;31.75;;;;;4.55;62.41;102071.16;5018284;28;45546;-73
2021/12/22 03:51:41;;;;;;;;;52.50;36.50;;;;;4.46;61.72;102050.63;5040051;28;47070;-74
2021/12/22 03:54:07;;;;;;;;;48.00;29.75;;;;;4.52;62.30;102050.06;5039270;28;45299;-72
2021/12/22 03:56:33;;;;;;;;;40.75;32.00;;;;;4.62;61.82;102073.28;5021276;28;46667;-73
2021/12/22 03:58:58;;;;;;;;;50.50;35.25;;;;;4.43;61.61;102032.16;5021034;28;51012;-73
2021/12/22 04:01:24;;;;;;;;;46.75;31.25;;;;;4.64;62.14;102057.69;5020888;28;45345;-72
2021/12/22 04:03:53;;;;;;;;;40.50;29.00;;;;;4.44;62.06;102018.28;5039697;28;45390;-72
2021/12/22 04:06:18;;;;;;;;;39.00;28.25;;;;;4.63;61.78;102043.69;5039079;28;46636;-73
2021/12/22 04:08:44;;;;;;;;;48.50;32.75;;;;;4.53;62.08;102025.72;5039252;28;48553;-72
2021/12/22 04:11:09;;;;;;;;;47.50;35.00;;;;;4.65;61.91;102047.31;5004807;28;45489;-73
2021/12/22 04:13:35;;;;;;;;;44.50;32.00;;;;;4.61;61.56;102042.72;5039456;28;45759;-73
2021/12/22 04:16:00;;;;;;;;;34.25;33.50;;;;;4.60;61.75;102042.66;5021169;28;49241;-73
2021/12/22 04:18:25;;;;;;;;;42.75;33.50;;;;;4.56;61.88;102043.28;5038707;28;57513;-73
2021/12/22 04:20:51;;;;;;;;;41.50;39.00;;;;;4.51;62.03;102043.03;5038423;28;55955;-73
2021/12/22 04:23:16;;;;;;;;;55.50;36.75;;;;;4.36;61.71;102024.78;5004685;28;45569;-73
2021/12/22 04:25:42;;;;;;;;;45.25;28.50;;;;;4.46;61.38;102039.25;5020311;28;45719;-73
2021/12/22 04:28:09;;;;;;;;;45.25;37.25;;;;;4.40;61.83;102041.56;5021202;28;45332;-73
2021/12/22 04:30:39;;;;;;;;;45.50;32.25;;;;;4.44;62.07;102051.38;5021404;28;45494;-74
2021/12/22 04:33:05;;;;;;;;;26.00;20.00;;;;;4.30;61.68;102031.41;5021508;28;45163;-73
2021/12/22 04:35:30;;;;;;;;;47.50;33.75;;;;;4.37;62.01;102049.25;5020322;28;61493;-73
2021/12/22 04:37:56;;;;;;;;;49.00;30.25;;;;;4.26;61.58;102032.03;5021014;28;52908;-72
2021/12/22 04:40:21;;;;;;;;;45.50;32.00;;;;;4.20;62.02;102028.25;5039300;28;45389;-73
2021/12/22 04:42:47;;;;;;;;;42.00;32.75;;;;;4.29;61.76;102046.19;5038724;28;47032;-73
2021/12/22 04:45:12;;;;;;;;;44.75;32.25;;;;;4.31;61.60;102065.47;5038394;28;46546;-74
2021/12/22 04:47:38;;;;;;;;;45.00;35.00;;;;;4.25;61.88;102056.38;5020827;28;45438;-72
2021/12/22 04:50:09;;;;;;;;;42.25;32.50;;;;;4.27;61.63;102055.66;4987337;28;45433;-73
2021/12/22 04:52:41;;;;;;;;;50.00;35.75;;;;;4.28;61.60;102051.34;5008830;28;45496;-73
2021/12/22 04:55:07;;;;;;;;;50.75;35.50;;;;;4.28;61.58;102048.72;5038280;28;46122;-73
2021/12/22 04:57:33;;;;;;;;;37.25;27.25;;;;;4.27;61.87;102052.16;5020677;28;45409;-73
2021/12/22 05:00:00;;;;;;;;;38.50;32.00;;;;;4.31;61.75;102057.59;5004546;28;45581;-73
2021/12/22 05:02:26;;;;;;;;;44.50;35.50;;;;;4.32;61.32;102058.53;5020574;28;45619;-72
2021/12/22 05:04:51;;;;;;;;;37.50;31.50;;;;;4.29;61.31;102043.56;5038002;28;62307;-72
2021/12/22 05:07:16;;;;;;;;;42.00;34.75;;;;;4.32;61.71;102043.75;4984031;28;45415;-73
2021/12/22 05:09:42;;;;;;;;;41.25;37.25;;;;;4.35;61.69;102037.78;5034899;28;45726;-74
2021/12/22 05:12:08;;;;;;;;;53.00;41.50;;;;;4.40;61.78;102038.94;5038312;28;45230;-73
2021/12/22 05:14:33;;;;;;;;;43.25;28.25;;;;;4.40;61.75;102020.63;5038025;28;46729;-72
2021/12/22 05:17:01;;;;;;;;;39.25;30.50;;;;;4.32;61.36;102001.91;5003286;28;54200;-74
2021/12/22 05:19:27;;;;;;;;;43.75;31.25;;;;;4.15;61.99;101966.97;5038067;28;45556;-71
2021/12/22 05:21:52;;;;;;;;;38.75;27.00;;;;;4.45;61.50;102019.16;5020384;28;45546;-72
2021/12/22 05:24:18;;;;;;;;;42.00;29.00;;;;;4.49;61.45;102023.75;5020145;28;45668;-72
2021/12/22 05:26:43;;;;;;;;;49.50;29.25;;;;;4.31;61.47;101989.63;5019842;28;55527;-73
2021/12/22 05:29:09;;;;;;;;;50.50;29.25;;;;;4.48;61.25;102019.34;5020220;28;45913;-74
2021/12/22 05:31:34;;;;;;;;;52.75;34.75;;;;;4.52;61.16;102026.53;5003514;28;48756;-72
2021/12/22 05:34:00;;;;;;;;;42.25;31.00;;;;;4.55;61.40;102025.81;5037051;28;62568;-72
2021/12/22 05:36:26;;;;;;;;;50.75;31.75;;;;;4.55;61.33;102031.94;5037882;28;45382;-74
2021/12/22 05:38:51;;;;;;;;;43.75;31.25;;;;;4.51;61.11;102019.50;5003575;28;45330;-73
2021/12/22 05:41:16;;;;;;;;;43.75;31.50;;;;;4.55;60.99;102031.94;5037654;28;54396;-73
2021/12/22 05:43:42;;;;;;;;;41.00;33.75;;;;;4.54;61.62;102027.53;5018999;28;61931;-74
2021/12/22 05:46:07;;;;;;;;;43.50;36.75;;;;;4.47;61.50;102012.28;5038015;28;45455;-73
2021/12/22 05:48:32;;;;;;;;;42.25;29.75;;;;;4.42;61.01;102009.44;5019804;28;46051;-72
2021/12/22 05:51:00;;;;;;;;;54.00;35.75;;;;;4.53;61.32;102030.97;5019428;28;45318;-73
2021/12/22 05:53:26;;;;;;;;;45.75;36.50;;;;;4.41;61.58;102005.00;5029690;28;46661;-73
2021/12/22 05:55:51;;;;;;;;;41.00;33.50;;;;;4.59;61.44;102033.91;5019443;28;53100;-73
2021/12/22 05:58:17;;;;;;;;;53.75;38.50;;;;;4.46;60.80;102018.34;5019990;28;45274;-73
2021/12/22 06:00:42;;;;;;;;;49.50;35.00;;;;;4.60;61.18;102040.03;5037379;28;54666;-73
2021/12/22 06:03:10;;;;;;;;;48.75;31.50;;;;;4.63;61.58;102055.88;5036878;28;59457;-73
2021/12/22 06:05:36;;;;;;;;;40.25;33.25;;;;;4.63;61.54;102037.56;5015161;28;45341;-74
2021/12/22 06:08:01;;;;;;;;;42.25;39.75;;;;;4.61;60.76;102036.59;5035833;28;45468;-73
2021/12/22 06:10:26;;;;;;;;;49.25;38.00;;;;;4.61;60.73;102027.03;5019316;28;49638;-74
2021/12/22 06:12:52;;;;;;;;;47.50;33.00;;;;;4.51;61.22;102005.53;5018487;28;60369;-73
2021/12/22 06:15:17;;;;;;;;;52.25;34.00;;;;;4.67;60.78;102031.69;5035457;28;60359;-73
2021/12/22 06:17:43;;;;;;;;;42.25;24.75;;;;;4.66;60.61;102041.25;5036183;28;45355;-73
2021/12/22 06:20:09;;;;;;;;;42.75;32.00;;;;;4.52;60.45;102023.91;5036236;28;45596;-73
2021/12/22 06:22:36;;;;;;;;;44.00;31.75;;;;;4.62;60.70;102044.50;5036386;28;45378;-74
2021/12/22 06:25:01;;;;;;;;;44.25;36.50;;;;;4.62;60.39;102043.63;5037355;28;45427;-73
2021/12/22 06:27:27;;;;;;;;;41.00;32.50;;;;;4.62;60.89;102043.63;5019262;28;45635;-74
2021/12/22 06:29:52;;;;;;;;;49.75;37.00;;;;;4.59;60.79;102039.13;5037038;28;49047;-73
2021/12/22 06:32:17;;;;;;;;;42.75;31.25;;;;;4.60;60.46;102048.78;5035575;28;63537;-73
2021/12/22 06:34:43;;;;;;;;;30.00;26.50;;;;;4.49;61.02;102023.75;5036505;28;60706;-72
2021/12/22 06:37:08;;;;;;;;;52.00;29.75;;;;;4.58;61.10;102037.34;5019029;28;46522;-74
2021/12/22 06:39:34;;;;;;;;;42.25;33.50;;;;;4.51;60.41;102027.34;5018775;28;45477;-73
2021/12/22 06:42:00;;;;;;;;;44.00;33.00;;;;;4.57;60.38;102045.97;5030139;28;46822;-73
2021/12/22 06:44:25;;;;;;;;;54.50;36.75;;;;;4.46;60.48;102042.78;5023589;28;45245;-74
2021/12/22 06:46:51;;;;;;;;;32.00;27.00;;;;;4.52;60.53;102057.91;5035689;28;54987;-74
2021/12/22 06:49:18;;;;;;;;;38.00;32.75;;;;;4.52;60.80;102052.66;5018730;28;45320;-73
2021/12/22 06:51:43;;;;;;;;;38.50;34.25;;;;;4.57;60.93;102066.91;5017961;28;46586;-74
2021/12/22 06:54:08;;;;;;;;;40.75;28.50;;;;;4.55;60.42;102054.56;5008736;28;60337;-74
2021/12/22 06:56:34;;;;;;;;;51.50;33.25;;;;;4.61;60.38;102065.38;5034158;28;54516;-73
2021/12/22 06:59:01;;;;;;;;;45.50;33.00;;;;;4.62;60.39;102051.47;5025518;28;45612;-74
2021/12/22 07:01:27;;;;;;;;;43.75;34.50;;;;;4.52;60.36;102034.38;5033323;28;46639;-72
2021/12/22 07:03:52;;;;;;;;;42.25;30.50;;;;;4.63;60.08;102053.25;5036590;28;45382;-72
2021/12/22 07:06:17;;;;;;;;;29.50;22.25;;;;;4.63;60.89;102053.25;5017867;28;51551;-73
2021/12/22 07:08:43;;;;;;;;;48.25;38.00;;;;;4.59;60.40;102041.75;5017889;28;54397;-71
2021/12/22 07:11:09;;;;;;;;;40.75;29.25;;;;;4.59;60.70;102044.38;5001834;28;45557;-72
2021/12/22 07:13:34;;;;;;;;;39.50;26.50;;;;;4.46;60.36;102021.84;5035770;28;45221;-72
2021/12/22 07:15:59;;;;;;;;;40.25;30.25;;;;;4.60;60.59;102043.53;5035312;28;45458;-72
2021/12/22 07:18:25;;;;;;;;;42.75;30.75;;;;;4.57;60.38;102039.84;5035512;28;47752;-74
2021/12/22 07:20:50;;;;;;;;;41.25;32.00;;;;;4.44;59.95;102043.53;5017410;28;53612;-76
2021/12/22 07:23:16;;;;;;;;;41.50;34.00;;;;;4.19;60.44;102025.56;4997943;28;45437;-76
2021/12/22 07:25:41;;;;;;;;;40.25;31.75;;;;;4.11;60.13;102024.25;5028651;28;49417;-73
2021/12/22 07:28:08;;;;;;;;;47.00;31.50;;;;;4.17;60.66;102056.84;5009132;28;54279;-72
2021/12/22 07:30:34;;;;;;;;;42.50;31.75;;;;;4.03;61.11;102028.13;5035180;28;46765;-72
2021/12/22 07:32:59;;;;;;;;;52.25;37.50;;;;;4.19;60.79;102047.38;5033556;28;45358;-72
2021/12/22 07:35:46;;;;;;;;;49.75;30.00;;;;;4.22;60.74;102053.63;5033617;28;45491;-73
2021/12/22 07:38:22;;;;;;;;;47.50;39.25;;;;;4.25;60.49;102051.16;5029139;28;45502;-73
2021/12/22 07:40:48;;;;;;;;;42.50;31.50;;;;;4.27;60.77;102046.94;5022844;28;46231;-72
2021/12/22 07:43:13;;;;;;;;;45.75;33.50;;;;;4.27;60.69;102047.81;5031498;28;62198;-73
2021/12/22 07:45:38;;;;;;;;;48.00;38.25;;;;;4.32;60.86;102046.38;5033683;28;55046;-72
2021/12/22 07:48:04;;;;;;;;;47.50;31.75;;;;;4.34;60.62;102052.56;5159596;22;53834;-71
2021/12/22 07:50:29;;;;;;;;;45.25;34.00;;;;;4.31;60.08;102036.69;5020148;28;46389;-72
2021/12/22 07:52:54;;;;;;;;;47.25;32.50;;;;;4.36;60.45;102052.66;5021766;28;55096;-73
2021/12/22 07:55:20;;;;;;;;;39.75;31.50;;;;;4.40;60.73;102052.00;5019814;28;45374;-72
2021/12/22 07:57:45;;;;;;;;;38.50;31.75;;;;;4.42;60.55;102063.44;5018690;28;49115;-72
2021/12/22 08:00:11;;;;;;;;;49.75;32.50;;;;;4.41;60.83;102059.03;5037428;28;62144;-73
2021/12/22 08:02:37;;;;;;;;;40.25;28.50;;;;;4.42;60.03;102055.59;5011327;28;45799;-73
2021/12/22 08:05:03;;;;;;;;;44.50;34.50;;;;;4.43;59.91;102071.41;5018213;28;45443;-71
2021/12/22 08:07:28;;;;;;;;;34.25;31.75;;;;;4.44;60.36;102065.34;5035885;28;45441;-73
2021/12/22 08:09:54;;;;;;;;;46.50;32.50;;;;;4.43;60.05;102065.25;5036838;28;60166;-73
2021/12/22 08:12:19;;;;;;;;;42.75;36.50;;;;;4.45;60.32;102066.25;5020084;28;61348;-73
2021/12/22 08:14:44;;;;;;;;;54.75;37.00;;;;;4.43;60.49;102045.25;5018461;28;47577;-73
2021/12/22 08:17:10;;;;;;;;;50.25;37.00;;;;;4.49;60.51;102052.53;5019115;28;45356;-73
2021/12/22 08:19:36;;;;;;;;;50.75;33.00;;;;;4.48;60.05;102055.97;5037141;28;46828;-73
2021/12/22 08:22:02;;;;;;;;;45.75;36.50;;;;;4.48;59.96;102053.34;5019517;28;45482;-73
2021/12/22 08:24:27;;;;;;;;;45.50;31.00;;;;;4.48;60.01;102053.34;5033583;28;45495;-73
2021/12/22 08:26:53;;;;;;;;;42.50;32.25;;;;;4.38;60.43;102038.84;5020287;28;52681;-73
2021/12/22 08:29:18;;;;;;;;;55.75;41.75;;;;;4.46;60.29;102047.13;5003305;28;45964;-73
2021/12/22 08:31:43;;;;;;;;;52.25;38.75;;;;;4.50;60.21;102043.84;5017316;28;47353;-73
2021/12/22 08:34:10;;;;;;;;;44.25;35.25;;;;;4.53;60.24;102046.66;5034951;28;45479;-73
2021/12/22 08:39:20;;;;;;;;;50.25;37.00;;;;;4.54;60.28;102037.97;5026081;28;45550;-72
2021/12/22 08:41:47;;;;;;;;;49.00;37.75;;;;;4.56;60.20;102038.97;5038053;28;45846;-72
2021/12/22 08:44:14;;;;;;;;;40.75;26.00;;;;;4.54;59.95;102027.53;5018638;28;45542;-72
2021/12/22 08:46:42;;;;;;;;;50.75;35.25;;;;;4.64;59.99;102045.53;5016681;28;45491;-72
2021/12/22 08:49:07;;;;;;;;;58.50;38.75;;;;;4.69;60.27;102036.22;5029888;28;47703;-71
2021/12/22 08:51:33;;;;;;;;;48.50;37.50;;;;;4.69;59.93;102035.31;5028681;28;52533;-71
2021/12/22 08:54:00;;;;;;;;;52.75;38.50;;;;;4.70;60.20;102035.38;5029819;28;45475;-73
2021/12/22 08:56:25;;;;;;;;;54.00;38.75;;;;;4.63;60.22;102011.41;5011903;28;45633;-71
2021/12/22 08:58:51;;;;;;;;;49.25;33.50;;;;;4.62;59.79;102002.66;5029959;28;46562;-74
2021/12/22 09:01:16;;;;;;;;;43.00;30.25;;;;;4.77;59.62;102018.28;4998895;28;62567;-74
2021/12/22 09:03:42;;;;;;;;;52.25;32.25;;;;;4.76;59.52;102021.72;5032783;28;52713;-75
2021/12/22 09:06:07;;;;;;;;;52.75;34.75;;;;;4.76;59.43;102026.06;5008550;28;45560;-74
2021/12/22 09:08:32;;;;;;;;;49.50;40.75;;;;;4.70;59.49;102011.84;5015949;28;46440;-73
2021/12/22 09:10:58;;;;;;;;;49.75;36.50;;;;;4.64;59.59;102008.00;5033700;28;47056;-74
2021/12/22 09:13:24;;;;;;;;;47.25;37.00;;;;;4.64;59.60;102001.06;5016703;28;45714;-74
2021/12/22 09:15:49;;;;;;;;;42.25;31.25;;;;;4.77;59.68;102020.91;5030426;28;45424;-73
2021/12/22 09:18:15;;;;;;;;;49.75;31.50;;;;;4.76;60.27;102015.59;5016614;28;46410;-74
2021/12/22 09:20:41;;;;;;;;;49.00;34.25;;;;;4.84;59.59;102020.41;5032394;28;45997;-73
2021/12/22 09:23:06;;;;;;;;;41.50;35.75;;;;;4.80;59.32;102013.22;5009937;28;45680;-73
2021/12/22 09:25:33;;;;;;;;;47.75;34.50;;;;;4.83;59.17;102033.41;5030397;28;54761;-73
2021/12/22 09:27:59;;;;;;;;;43.25;31.50;;;;;4.68;59.16;102010.84;5026501;28;45780;-74
2021/12/22 09:30:24;;;;;;;;;46.00;34.50;;;;;4.81;59.97;102032.44;5035757;28;45594;-73
2021/12/22 09:32:49;;;;;;;;;41.75;36.50;;;;;4.81;59.74;102024.59;5016173;28;51050;-73
2021/12/22 09:35:15;;;;;;;;;45.75;33.00;;;;;4.76;59.45;102010.38;5034341;28;54199;-73
2021/12/22 09:37:40;;;;;;;;;51.75;33.00;;;;;4.78;59.78;102012.22;5018299;28;60048;-73
2021/12/22 09:40:07;;;;;;;;;47.25;34.75;;;;;4.94;59.27;102034.88;5034956;28;55116;-74
2021/12/22 09:42:32;;;;;;;;;51.50;38.00;;;;;4.96;59.84;102030.66;5033509;28;46105;-75
2021/12/22 09:45:00;;;;;;;;;47.00;35.00;;;;;4.95;59.27;102018.34;4998680;28;52782;-73
2021/12/22 09:47:29;;;;;;;;;50.25;41.00;;;;;5.06;59.52;102034.63;5017303;28;46187;-73
2021/12/22 09:50:13;;;;;;;;;58.00;41.50;;;;;5.02;59.73;102023.13;5035294;28;45516;-73
2021/12/22 09:52:39;;;;;;;;;48.75;36.00;;;;;5.08;59.58;102033.91;5016251;28;45930;-74
2021/12/22 09:55:06;;;;;;;;;46.75;36.75;;;;;5.20;59.26;102039.75;5031708;28;45619;-73
2021/12/22 09:57:31;;;;;;;;;43.25;33.75;;;;;5.15;59.12;102022.03;5031912;28;46713;-73
2021/12/22 09:59:58;;;;;;;;;45.25;30.00;;;;;5.28;59.05;102031.44;5032986;28;49327;-74
2021/12/22 10:02:27;;;;;;;;;39.25;30.75;;;;;5.20;59.33;102026.69;5018792;28;45656;-73
2021/12/22 10:04:52;;;;;;;;;54.00;36.00;;;;;5.39;59.00;102045.97;5011885;28;45521;-75
2021/12/22 10:07:24;;;;;;;;;49.50;35.00;;;;;5.40;58.98;102039.91;4997234;28;46647;-74
2021/12/22 10:09:50;;;;;;;;;57.00;42.50;;;;;5.42;58.50;102030.41;5016001;28;45368;-75
2021/12/22 10:12:19;;;;;;;;;48.50;37.50;;;;;5.30;58.54;102014.06;5030743;28;48256;-75
2021/12/22 10:14:59;;;;;;;;;60.75;41.50;;;;;5.43;58.98;102030.50;5031021;28;45518;-73
2021/12/22 10:17:31;;;;;;;;;58.75;43.00;;;;;5.46;58.42;102037.59;5025505;28;47287;-73
2021/12/22 10:20:01;;;;;;;;;56.75;41.00;;;;;5.47;58.60;102037.66;5029089;28;45412;-74
2021/12/22 10:22:34;;;;;;;;;55.00;40.50;;;;;5.43;58.41;102026.94;5029294;28;45420;-74
2021/12/22 10:25:08;;;;;;;;;54.50;40.25;;;;;5.55;58.69;102040.69;4999358;28;45489;-73
2021/12/22 10:27:34;;;;;;;;;56.00;39.50;;;;;5.57;58.46;102038.16;5035238;28;46756;-74
2021/12/22 10:29:59;;;;;;;;;60.50;38.00;;;;;5.56;58.46;102028.50;5016844;28;45555;-77
2021/12/22 10:32:25;;;;;;;;;52.50;39.75;;;;;5.63;58.87;102031.47;5018930;28;45618;-74
2021/12/22 10:35:01;;;;;;;;;59.25;40.75;;;;;5.63;58.09;102021.00;5026956;28;45646;-75
2021/12/22 10:37:38;;;;;;;;;60.75;44.75;;;;;5.73;58.20;102036.34;5010067;28;46657;-75
2021/12/22 10:40:26;;;;;;;;;58.00;41.25;;;;;5.78;58.12;102020.88;5001818;28;45590;-75
2021/12/22 10:42:52;;;;;;;;;59.75;40.50;;;;;5.71;57.63;102011.81;5021723;28;45546;-74
2021/12/22 10:45:19;;;;;;;;;47.25;37.00;;;;;5.62;57.39;101995.63;5005706;28;45555;-74
2021/12/22 10:50:41;;;;;;;;;55.50;39.25;;;;;5.77;58.04;101999.00;5013697;28;45507;-74
2021/12/22 10:53:07;;;;;;;;;52.00;39.00;;;;;5.81;58.04;101992.22;5014274;28;45357;-74
2021/12/22 10:55:40;;;;;;;;;63.25;46.50;;;;;5.86;58.10;101979.31;5017669;28;45380;-74
2021/12/22 10:58:17;;;;;;;;;57.00;45.25;;;;;5.94;58.32;101983.25;5032464;28;47392;-74
2021/12/22 11:00:43;;;;;;;;;58.75;41.25;;;;;6.00;58.12;101968.69;5031438;28;45433;-74
2021/12/22 11:03:10;;;;;;;;;59.50;42.00;;;;;6.02;57.82;101956.56;4997422;28;45386;-74
2021/12/22 11:06:03;;;;;;;;;57.00;42.50;;;;;6.21;57.90;101973.16;5014553;28;45492;-74
2021/12/22 11:08:28;;;;;;;;;58.75;42.50;;;;;6.24;57.50;101976.84;5024734;28;46749;-75
2021/12/22 11:10:53;;;;;;;;;59.50;43.50;;;;;6.10;57.07;101951.69;5029693;28;56062;-75
2021/12/22 11:13:20;;;;;;;;;63.75;48.50;;;;;6.03;57.15;101949.59;5029935;28;53358;-74
2021/12/22 11:15:45;;;;;;;;;61.75;45.00;;;;;6.14;57.44;101973.72;5025458;28;45428;-75
2021/12/22 11:18:27;;;;;;;;;60.50;45.50;;;;;6.14;57.39;101961.50;5017774;28;45737;-75
2021/12/22 11:21:15;;;;;;;;;47.50;40.25;;;;;6.25;57.17;101962.88;5031417;28;45391;-74
2021/12/22 11:23:41;;;;;;;;;62.50;43.75;;;;;6.23;57.55;101954.06;5017650;28;45346;-74
2021/12/22 11:26:06;;;;;;;;;63.00;46.50;;;;;6.27;57.26;101944.59;5017954;28;45696;-75
2021/12/22 11:28:34;;;;;;;;;65.75;45.25;;;;;6.29;57.06;101940.34;5021835;28;46806;-73
2021/12/22 11:30:59;;;;;;;;;67.50;46.25;;;;;6.34;57.27;101951.94;5018553;28;46233;-72
2021/12/22 11:33:25;;;;;;;;;61.25;43.75;;;;;6.35;56.63;101942.34;5031032;28;56792;-73